createdAt,value
2023-02-03T00:02:11.811Z,101837.28
2023-02-03T00:04:38.196Z,101824.19
2023-02-03T00:07:04.521Z,101825.50
2023-02-03T00:09:30.975Z,101828.81
2023-02-03T00:11:57.388Z,101834.25
2023-02-03T00:14:23.649Z,101834.81
2023-02-03T00:16:50.094Z,101862.09
2023-02-03T00:19:17.622Z,101859.50
2023-02-03T00:21:44.322Z,101862.53
2023-02-03T00:24:10.745Z,101855.69
2023-02-03T00:26:40.628Z,101862.94
2023-02-03T00:29:06.977Z,101863.38
2023-02-03T00:31:33.410Z,101857.53
2023-02-03T00:33:59.762Z,101863.44
2023-02-03T00:36:26.643Z,101858.09
2023-02-03T00:38:53.412Z,101865.06
2023-02-03T00:41:20.930Z,101869.22
2023-02-03T00:43:47.493Z,101876.81
2023-02-03T00:46:14.228Z,101874.31
2023-02-03T00:48:40.546Z,101843.81
2023-02-03T00:51:07.159Z,101884.06
2023-02-03T00:53:33.618Z,101880.53
2023-02-03T00:55:59.995Z,101888.50
2023-02-03T00:58:26.334Z,101882.34
2023-02-03T01:00:54.093Z,101879.34
2023-02-03T01:03:20.435Z,101875.59
2023-02-03T01:05:46.737Z,101855.41
2023-02-03T01:08:13.066Z,101867.78
2023-02-03T01:10:39.426Z,101874.06
2023-02-03T01:13:05.742Z,101882.72
2023-02-03T01:15:32.086Z,101867.81
2023-02-03T01:17:58.481Z,101883.47
2023-02-03T01:20:25.127Z,101899.56
2023-02-03T01:22:51.875Z,101880.53
2023-02-03T01:25:18.237Z,101878.06
2023-02-03T01:27:44.654Z,101893.28
2023-02-03T01:30:11.288Z,101849.94
2023-02-03T01:32:37.633Z,101866.81
2023-02-03T01:35:04.015Z,101867.78
2023-02-03T01:37:30.324Z,101863.63
2023-02-03T01:39:57.532Z,101866.38
2023-02-03T01:42:23.955Z,101878.06
2023-02-03T01:44:52.403Z,101874.41
2023-02-03T01:47:28.505Z,101876.28
2023-02-03T01:49:54.821Z,101874.50
2023-02-03T01:52:21.159Z,101852.13
2023-02-03T01:54:48.959Z,101831.25
2023-02-03T01:57:31.652Z,101832.31
2023-02-03T02:00:00.173Z,101837.25
2023-02-03T02:02:26.683Z,101819.66
2023-02-03T02:05:28.707Z,101796.38
2023-02-03T02:07:56.573Z,101801.16
2023-02-03T02:10:22.990Z,101793.44
2023-02-03T02:12:49.803Z,101784.94
2023-02-03T02:15:16.311Z,101800.97
2023-02-03T02:17:45.577Z,101794.22
2023-02-03T02:20:24.204Z,101811.41
2023-02-03T02:23:09.694Z,101777.41
2023-02-03T02:25:41.703Z,101771.34
2023-02-03T02:28:24.735Z,101772.47
2023-02-03T02:30:57.169Z,101814.59
2023-02-03T02:33:23.518Z,101801.84
2023-02-03T02:35:58.732Z,101790.59
2023-02-03T02:38:30.451Z,101804.44
2023-02-03T02:41:08.315Z,101807.88
2023-02-03T02:43:41.102Z,101799.63
2023-02-03T02:46:12.990Z,101818.03
2023-02-03T02:48:53.332Z,101838.06
2023-02-03T02:51:21.421Z,101846.56
2023-02-03T02:53:54.709Z,101829.56
2023-02-03T02:56:21.413Z,101814.50
2023-02-03T02:58:49.503Z,101813.53
2023-02-03T03:01:17.251Z,101793.63
2023-02-03T03:03:45.117Z,101801.06
2023-02-03T03:06:26.171Z,101775.09
2023-02-03T03:08:55.587Z,101786.63
2023-02-03T03:11:22.994Z,101788.53
2023-02-03T03:13:51.400Z,101785.69
2023-02-03T03:16:20.240Z,101803.41
2023-02-03T03:18:48.627Z,101784.47
2023-02-03T03:21:18.801Z,101791.72
2023-02-03T03:23:46.730Z,101784.59
2023-02-03T03:26:28.776Z,101779.63
2023-02-03T03:29:01.652Z,101787.09
2023-02-03T03:31:28.113Z,101784.41
2023-02-03T03:33:54.511Z,101794.72
2023-02-03T03:36:30.290Z,101794.97
2023-02-03T03:39:11.969Z,101785.94
2023-02-03T03:41:44.997Z,101761.63
2023-02-03T03:44:13.281Z,101779.47
2023-02-03T03:46:49.402Z,101776.00
2023-02-03T03:49:16.514Z,101783.72
2023-02-03T03:51:46.287Z,101774.94
2023-02-03T03:54:15.468Z,101780.53
2023-02-03T03:56:45.424Z,101755.41
2023-02-03T03:59:13.333Z,101754.88
2023-02-03T04:01:40.715Z,101760.34
2023-02-03T04:04:09.306Z,101769.78
2023-02-03T04:06:37.221Z,101768.06
2023-02-03T04:09:03.590Z,101764.50
2023-02-03T04:11:48.600Z,101768.63
2023-02-03T04:14:14.943Z,101777.78
2023-02-03T04:16:41.288Z,101754.38
2023-02-03T04:19:08.551Z,101759.66
2023-02-03T04:21:34.993Z,101776.06
2023-02-03T04:24:01.281Z,101766.22
2023-02-03T04:26:27.598Z,101762.31
2023-02-03T04:28:53.892Z,101753.97
2023-02-03T04:31:20.555Z,101752.47
2023-02-03T04:33:47.251Z,101762.81
2023-02-03T04:36:13.534Z,101755.66
2023-02-03T04:38:39.853Z,101765.28
2023-02-03T04:41:06.154Z,101756.38
2023-02-03T04:43:32.549Z,101747.84
2023-02-03T04:46:01.658Z,101747.31
2023-02-03T04:48:28.221Z,101755.41
2023-02-03T04:50:54.538Z,101757.22
2023-02-03T04:53:20.829Z,101752.81
2023-02-03T04:55:47.953Z,101751.16
2023-02-03T04:58:14.297Z,101751.97
2023-02-03T05:00:40.839Z,101741.41
2023-02-03T05:03:07.225Z,101755.44
2023-02-03T05:05:33.591Z,101742.22
2023-02-03T05:07:59.860Z,101724.53
2023-02-03T05:10:26.499Z,101718.50
2023-02-03T05:12:52.939Z,101713.53
2023-02-03T05:15:19.217Z,101715.47
2023-02-03T05:17:45.529Z,101737.31
2023-02-03T05:20:11.972Z,101727.28
2023-02-03T05:22:38.410Z,101726.56
2023-02-03T05:25:05.092Z,101715.59
2023-02-03T05:27:31.492Z,101725.91
2023-02-03T05:29:58.016Z,101734.13
2023-02-03T05:32:24.315Z,101728.34
2023-02-03T05:34:50.602Z,101720.13
2023-02-03T05:37:16.906Z,101724.09
2023-02-03T05:39:43.177Z,101719.03
2023-02-03T05:42:09.471Z,101717.34
2023-02-03T05:44:35.799Z,101731.81
2023-02-03T05:47:02.077Z,101741.03
2023-02-03T05:49:28.386Z,101728.81
2023-02-03T05:51:55.162Z,101735.13
2023-02-03T05:54:21.605Z,101734.16
2023-02-03T05:56:48.058Z,101727.97
2023-02-03T05:59:14.523Z,101718.50
2023-02-03T06:01:40.886Z,101736.09
2023-02-03T06:04:07.372Z,101718.72
2023-02-03T06:06:34.246Z,101727.53
2023-02-03T06:09:04.768Z,101719.03
2023-02-03T06:11:31.660Z,101734.69
2023-02-03T06:14:00.910Z,101727.81
2023-02-03T06:16:27.883Z,101722.72
2023-02-03T06:18:55.498Z,101722.59
2023-02-03T06:21:22.295Z,101726.16
2023-02-03T06:23:51.461Z,101737.00
2023-02-03T06:26:17.787Z,101721.91
2023-02-03T06:28:44.122Z,101724.25
2023-02-03T06:31:10.551Z,101730.03
2023-02-03T06:33:36.917Z,101730.56
2023-02-03T06:36:03.300Z,101743.22
2023-02-03T06:38:29.604Z,101731.44
2023-02-03T06:40:55.901Z,101735.56
2023-02-03T06:43:22.413Z,101730.47
2023-02-03T06:45:48.738Z,101749.84
2023-02-03T06:48:15.276Z,101769.09
2023-02-03T06:50:41.864Z,101751.38
2023-02-03T06:53:08.198Z,101732.94
2023-02-03T06:55:34.488Z,101744.59
2023-02-03T06:58:00.828Z,101727.19
2023-02-03T07:00:27.395Z,101741.50
2023-02-03T07:02:58.150Z,101745.47
2023-02-03T07:05:25.187Z,101729.81
2023-02-03T07:07:52.022Z,101730.34
2023-02-03T07:10:18.407Z,101737.50
2023-02-03T07:12:44.757Z,101728.84
2023-02-03T07:15:11.995Z,101747.22
2023-02-03T07:17:39.136Z,101742.47
2023-02-03T07:20:11.681Z,101724.63
2023-02-03T07:22:39.392Z,101730.06
2023-02-03T07:25:05.974Z,101736.28
2023-02-03T07:27:32.293Z,101736.38
2023-02-03T07:29:58.563Z,101746.00
2023-02-03T07:32:24.856Z,101747.97
2023-02-03T07:34:51.151Z,101743.53
2023-02-03T07:37:17.443Z,101741.59
2023-02-03T07:39:44.104Z,101735.09
2023-02-03T07:42:11.122Z,101735.31
2023-02-03T07:44:37.421Z,101728.72
2023-02-03T07:47:03.707Z,101720.47
2023-02-03T07:49:30.073Z,101738.03
2023-02-03T07:51:56.566Z,101732.28
2023-02-03T07:54:22.879Z,101733.81
2023-02-03T07:56:49.182Z,101739.19
2023-02-03T07:59:16.514Z,101742.38
2023-02-03T08:01:42.844Z,101742.38
2023-02-03T08:04:09.167Z,101746.94
2023-02-03T08:06:35.596Z,101741.19
2023-02-03T08:09:01.891Z,101741.88
2023-02-03T08:11:28.194Z,101748.75
2023-02-03T08:13:54.530Z,101743.97
2023-02-03T08:16:20.934Z,101754.59
2023-02-03T08:18:47.279Z,101734.41
2023-02-03T08:21:13.589Z,101755.44
2023-02-03T08:23:39.927Z,101740.06
2023-02-03T08:26:06.209Z,101740.72
2023-02-03T08:28:32.561Z,101741.69
2023-02-03T08:30:58.962Z,101743.22
2023-02-03T08:33:25.361Z,101748.28
2023-02-03T08:35:51.744Z,101741.44
2023-02-03T08:38:18.638Z,101734.97
2023-02-03T08:40:44.994Z,101730.44
2023-02-03T08:43:11.349Z,101721.78
2023-02-03T08:45:38.966Z,101730.44
2023-02-03T08:48:05.361Z,101733.19
2023-02-03T08:50:31.905Z,101740.88
2023-02-03T08:52:58.351Z,101752.03
2023-02-03T08:55:24.737Z,101738.69
2023-02-03T08:57:51.041Z,101745.00
2023-02-03T09:00:17.547Z,101741.44
2023-02-03T09:02:43.868Z,101762.91
2023-02-03T09:05:10.308Z,101746.81
2023-02-03T09:07:36.735Z,101741.03
2023-02-03T09:10:03.173Z,101741.03
2023-02-03T09:12:29.449Z,101760.59
2023-02-03T09:14:55.772Z,101735.13
2023-02-03T09:17:22.045Z,101746.56
2023-02-03T09:19:48.412Z,101744.19
2023-02-03T09:22:14.758Z,101752.44
2023-02-03T09:24:41.330Z,101737.31
2023-02-03T09:27:07.662Z,101761.53
2023-02-03T09:29:34.020Z,101754.38
2023-02-03T09:32:01.102Z,101761.25
2023-02-03T09:34:27.413Z,101751.09
2023-02-03T09:36:53.724Z,101760.97
2023-02-03T09:39:20.062Z,101750.81
2023-02-03T09:41:56.597Z,101747.38
2023-02-03T09:44:27.522Z,101751.75
2023-02-03T09:46:56.682Z,101735.94
2023-02-03T09:49:28.610Z,101734.00
2023-02-03T09:51:54.951Z,101756.59
2023-02-03T09:54:23.969Z,101748.88
2023-02-03T09:56:52.538Z,101768.00
2023-02-03T09:59:19.503Z,101768.97
2023-02-03T10:01:52.889Z,101773.91
2023-02-03T10:04:28.494Z,101769.09
2023-02-03T10:06:58.732Z,101769.66
2023-02-03T10:09:27.871Z,101773.09
2023-02-03T10:12:12.754Z,101752.72
2023-02-03T10:14:58.561Z,101806.50
2023-02-03T10:17:33.834Z,101811.06
2023-02-03T10:20:21.889Z,101817.13
2023-02-03T10:22:53.493Z,101799.94
2023-02-03T10:25:25.002Z,101812.03
2023-02-03T10:27:55.087Z,101807.34
2023-02-03T10:30:21.629Z,101827.88
2023-02-03T10:32:54.152Z,101794.25
2023-02-03T10:35:21.526Z,101812.28
2023-02-03T10:37:49.969Z,101827.03
2023-02-03T10:40:16.930Z,101816.72
2023-02-03T10:43:06.460Z,101848.78
2023-02-03T10:45:36.282Z,101822.34
2023-02-03T10:48:04.202Z,101827.28
2023-02-03T10:50:33.586Z,101821.38
2023-02-03T10:53:18.356Z,101834.59
2023-02-03T10:55:46.608Z,101824.00
2023-02-03T10:58:16.558Z,101824.56
2023-02-03T11:00:43.282Z,101837.22
2023-02-03T11:03:32.983Z,101863.38
2023-02-03T11:06:11.641Z,101830.91
2023-02-03T11:08:40.287Z,101861.19
2023-02-03T11:11:13.259Z,101863.50
2023-02-03T11:13:39.659Z,101872.00
2023-02-03T11:16:10.753Z,101877.31
2023-02-03T11:18:47.918Z,101885.09
2023-02-03T11:21:19.764Z,101871.59
2023-02-03T11:23:46.031Z,101874.31
2023-02-03T11:26:14.295Z,101874.44
2023-02-03T11:28:46.339Z,101871.63
2023-02-03T11:31:24.355Z,101864.03
2023-02-03T11:33:56.749Z,101869.13
2023-02-03T11:36:26.213Z,101870.63
2023-02-03T11:38:52.585Z,101874.69
2023-02-03T11:41:20.205Z,101896.00
2023-02-03T11:43:47.764Z,101882.00
2023-02-03T11:46:15.185Z,101875.84
2023-02-03T11:48:59.379Z,101899.72
2023-02-03T11:51:40.187Z,101885.13
2023-02-03T11:54:14.941Z,101872.25
2023-02-03T11:56:43.925Z,101873.91
2023-02-03T11:59:13.360Z,101882.53
2023-02-03T12:02:01.884Z,101885.81
2023-02-03T12:04:37.312Z,101872.41
2023-02-03T12:07:22.270Z,101867.19
2023-02-03T12:09:54.887Z,101907.34
2023-02-03T12:12:21.143Z,101886.72
2023-02-03T12:15:06.446Z,101883.53
2023-02-03T12:17:35.774Z,101895.66
2023-02-03T12:20:05.249Z,101926.56
2023-02-03T12:22:45.033Z,101931.69
2023-02-03T12:25:41.049Z,101922.00
2023-02-03T12:28:27.434Z,101917.66
2023-02-03T12:31:17.953Z,101912.88
2023-02-03T12:33:49.258Z,101918.09
2023-02-03T12:36:19.482Z,101914.69
2023-02-03T12:38:51.682Z,101899.59
2023-02-03T12:41:47.637Z,101902.59
2023-02-03T12:45:06.284Z,101887.34
2023-02-03T12:51:30.471Z,101900.16
2023-02-03T12:54:01.051Z,101903.44
2023-02-03T12:56:33.691Z,101912.69
2023-02-03T12:59:10.328Z,101903.44
2023-02-03T13:01:40.702Z,101912.25
2023-02-03T13:04:07.007Z,101897.66
2023-02-03T13:06:52.119Z,101892.44
2023-02-03T13:09:18.400Z,101878.53
2023-02-03T13:11:57.773Z,101880.75
2023-02-03T13:14:28.519Z,101884.31
2023-02-03T13:17:32.474Z,101908.00
2023-02-03T13:23:07.411Z,101924.06
2023-02-03T13:25:53.460Z,101882.38
2023-02-03T13:28:27.580Z,101886.91
2023-02-03T13:31:13.080Z,101890.09
2023-02-03T13:33:47.616Z,101906.44
2023-02-03T13:36:42.152Z,101908.50
2023-02-03T13:39:08.405Z,101910.69
2023-02-03T13:41:34.831Z,101906.38
2023-02-03T13:44:01.758Z,101897.34
2023-02-03T13:46:31.110Z,101895.66
2023-02-03T13:49:01.911Z,101913.56
2023-02-03T13:51:47.098Z,101926.19
2023-02-03T13:54:16.568Z,101924.78
2023-02-03T13:56:52.323Z,101954.09
2023-02-03T13:59:19.245Z,101947.31
2023-02-03T14:01:45.907Z,101959.94
2023-02-03T14:07:43.015Z,101951.03
2023-02-03T14:10:12.272Z,101959.03
2023-02-03T14:12:40.216Z,101962.56
2023-02-03T14:15:25.162Z,101976.34
2023-02-03T14:17:51.526Z,101974.41
2023-02-03T14:20:27.265Z,101979.44
2023-02-03T14:23:13.985Z,101987.75
2023-02-03T14:29:27.271Z,101996.09
2023-02-03T14:31:58.836Z,102002.94
2023-02-03T14:34:34.207Z,101993.81
2023-02-03T14:40:47.263Z,102007.53
2023-02-03T14:43:28.258Z,102020.59
2023-02-03T14:46:13.476Z,102024.13
2023-02-03T14:48:48.544Z,102017.72
2023-02-03T14:51:31.133Z,102011.88
2023-02-03T14:53:57.380Z,102018.91
2023-02-03T14:56:23.958Z,102027.56
2023-02-03T14:58:56.458Z,102006.88
2023-02-03T15:01:35.006Z,102004.63
2023-02-03T15:04:13.552Z,102029.78
2023-02-03T15:06:44.099Z,102021.63
2023-02-03T15:09:33.237Z,102035.97
2023-02-03T15:11:59.620Z,102043.47
2023-02-03T15:14:27.021Z,102041.59
2023-02-03T15:16:54.977Z,102039.94
2023-02-03T15:19:25.524Z,102054.88
2023-02-03T15:21:52.158Z,102053.75
2023-02-03T15:24:22.170Z,102047.94
2023-02-03T15:26:50.081Z,102046.53
2023-02-03T15:29:42.881Z,102053.44
2023-02-03T15:32:12.750Z,102063.25
2023-02-03T15:34:39.466Z,102062.94
2023-02-03T15:37:08.674Z,102067.66
2023-02-03T15:39:46.004Z,102070.28
2023-02-03T15:42:24.965Z,102073.38
2023-02-03T15:44:59.380Z,102072.19
2023-02-03T15:47:39.597Z,102064.88
2023-02-03T15:50:30.729Z,102075.78
2023-02-03T15:52:59.409Z,102083.84
2023-02-03T15:55:38.989Z,102088.13
2023-02-03T15:58:05.565Z,102078.31
2023-02-03T16:00:35.413Z,102086.94
2023-02-03T16:03:03.774Z,102091.22
2023-02-03T16:05:32.569Z,102100.94
2023-02-03T16:08:17.895Z,102093.84
2023-02-03T16:10:44.164Z,102100.13
2023-02-03T16:13:21.034Z,102105.00
2023-02-03T16:16:00.803Z,102106.75
2023-02-03T16:18:27.239Z,102119.09
2023-02-03T16:20:53.636Z,102123.72
2023-02-03T16:23:24.139Z,102120.66
2023-02-03T16:26:07.608Z,102121.59
2023-02-03T16:28:52.950Z,102116.13
2023-02-03T16:31:39.437Z,102119.56
2023-02-03T16:34:32.203Z,102126.44
2023-02-03T16:37:17.502Z,102127.97
2023-02-03T17:55:37.543Z,102234.84
2023-02-03T18:33:09.869Z,102279.91
2023-02-03T18:35:45.797Z,102280.13
2023-02-03T18:43:35.940Z,102295.06
2023-02-03T18:46:16.263Z,102306.81
2023-02-03T18:48:42.676Z,102285.34
2023-02-03T18:51:09.770Z,102296.72
2023-02-03T18:53:38.514Z,102306.44
2023-02-03T18:56:28.499Z,102312.56
2023-02-03T18:58:55.355Z,102308.09
2023-02-03T19:01:23.196Z,102307.47
2023-02-03T19:03:49.897Z,102305.81
2023-02-03T19:06:16.514Z,102314.78
2023-02-03T19:08:42.848Z,102311.91
2023-02-03T19:11:09.199Z,102319.25
2023-02-03T19:13:35.488Z,102325.41
2023-02-03T19:16:02.484Z,102320.72
2023-02-03T19:18:30.676Z,102325.41
2023-02-03T19:20:57.043Z,102335.75
2023-02-03T19:23:27.269Z,102340.00
2023-02-03T19:29:10.608Z,102339.56
2023-02-03T19:31:37.312Z,102346.75
2023-02-03T19:34:03.784Z,102350.06
2023-02-03T19:36:30.463Z,102351.69
2023-02-03T19:38:56.810Z,102366.72
2023-02-03T19:42:54.016Z,102365.63
2023-02-03T19:45:20.715Z,102345.63
2023-02-03T19:47:47.200Z,102333.25
2023-02-03T19:50:13.697Z,102359.03
2023-02-03T19:52:40.179Z,102361.06
2023-02-03T19:55:07.528Z,102293.31
2023-02-03T19:57:39.851Z,102241.69
2023-02-03T20:00:07.176Z,102293.91
2023-02-03T20:02:33.731Z,102376.06
2023-02-03T20:05:00.215Z,102317.00
2023-02-03T20:07:28.582Z,102226.38
2023-02-03T20:09:55.111Z,102358.88
2023-02-03T20:12:21.563Z,102410.72
2023-02-03T20:14:47.946Z,102384.59
2023-02-03T20:17:14.454Z,102363.44
2023-02-03T20:19:40.848Z,102406.97
2023-02-03T20:22:07.216Z,102363.03
2023-02-03T20:24:33.768Z,102413.66
2023-02-03T20:27:00.349Z,102429.91
2023-02-03T20:29:35.625Z,102344.44
2023-02-03T20:32:04.525Z,102411.66
2023-02-03T20:34:30.967Z,102428.19
2023-02-03T20:36:58.881Z,102429.44
2023-02-03T20:39:25.748Z,102430.72
2023-02-03T20:41:52.500Z,102431.44
2023-02-03T20:44:19.057Z,102439.22
2023-02-03T20:46:45.766Z,102436.84
2023-02-03T20:49:13.767Z,102452.56
2023-02-03T20:51:40.613Z,102435.38
2023-02-03T20:54:21.995Z,102461.72
2023-02-03T20:56:48.828Z,102431.88
2023-02-03T20:59:19.791Z,102446.91
2023-02-03T21:01:47.073Z,102457.84
2023-02-03T21:04:48.355Z,102464.28
2023-02-03T21:07:21.448Z,102439.25
2023-02-03T21:09:47.830Z,102473.75
2023-02-03T21:12:14.971Z,102443.63
2023-02-03T21:14:49.709Z,102473.59
2023-02-03T21:17:20.741Z,102495.22
2023-02-03T21:19:47.740Z,102489.47
2023-02-03T21:22:18.031Z,102496.88
2023-02-03T21:25:01.569Z,102490.78
2023-02-03T21:27:35.002Z,102491.06
2023-02-03T21:30:22.321Z,102487.00
2023-02-03T21:32:48.683Z,102509.66
2023-02-03T21:35:35.030Z,102516.56
2023-02-03T21:38:02.522Z,102511.59
2023-02-03T21:40:34.557Z,102501.91
2023-02-03T21:43:03.322Z,102494.50
2023-02-03T21:45:42.446Z,102497.09
2023-02-03T21:48:27.187Z,102514.47
2023-02-03T21:50:55.494Z,102507.50
2023-02-03T21:53:49.220Z,102488.84
2023-02-03T21:56:17.771Z,102507.59
2023-02-03T21:58:47.249Z,102519.41
2023-02-03T22:01:16.715Z,102499.09
2023-02-03T22:03:47.549Z,102509.13
2023-02-03T22:06:25.288Z,102529.94
2023-02-03T22:08:54.560Z,102518.94
2023-02-03T22:11:22.570Z,102526.69
2023-02-03T22:13:49.585Z,102522.63
2023-02-03T22:16:20.066Z,102527.47
2023-02-03T22:18:48.033Z,102517.22
2023-02-03T22:21:15.045Z,102523.13
2023-02-03T22:23:42.253Z,102546.50
2023-02-03T22:26:09.963Z,102553.47
2023-02-03T22:28:36.721Z,102562.66
2023-02-03T22:31:05.058Z,102568.53
2023-02-03T22:33:32.012Z,102573.31
2023-02-03T22:35:58.530Z,102565.09
2023-02-03T22:38:25.298Z,102560.25
2023-02-03T22:40:52.514Z,102572.97
2023-02-03T22:43:19.121Z,102578.53
2023-02-03T22:45:45.582Z,102569.16
2023-02-03T22:48:12.160Z,102572.22
2023-02-03T22:50:38.865Z,102566.41
2023-02-03T22:53:05.965Z,102590.22
2023-02-03T22:55:32.495Z,102569.06
2023-02-03T22:57:59.213Z,102580.75
2023-02-03T23:00:26.722Z,102573.22
2023-02-03T23:02:53.613Z,102593.56
2023-02-03T23:05:20.491Z,102591.44
2023-02-03T23:07:47.502Z,102585.22
2023-02-03T23:10:19.896Z,102591.78
2023-02-03T23:12:46.697Z,102571.94
2023-02-03T23:15:13.943Z,102606.75
2023-02-03T23:17:40.748Z,102599.13
2023-02-03T23:20:09.221Z,102595.91
2023-02-03T23:22:35.791Z,102595.25
2023-02-03T23:25:02.652Z,102592.72
2023-02-03T23:27:29.066Z,102575.59
2023-02-03T23:29:55.473Z,102590.88
2023-02-03T23:32:22.110Z,102588.38
2023-02-03T23:35:06.867Z,102586.72
2023-02-03T23:37:33.353Z,102588.13
2023-02-03T23:40:00.381Z,102618.19
2023-02-03T23:42:26.936Z,102604.31
2023-02-03T23:44:53.355Z,102607.56
2023-02-03T23:47:19.756Z,102613.88
2023-02-03T23:49:46.226Z,102613.69
2023-02-03T23:52:12.687Z,102623.81
2023-02-03T23:54:39.123Z,102636.69
2023-02-03T23:57:05.600Z,102629.09
2023-02-03T23:59:32.151Z,102635.22
